RYR93QM LIPZ-LOWW
Flight info
| Callsign | RYR93QM |
|---|---|
| Flight time | 1h 5m |
| Altitude | 29000 |
| Route | ROKIB DCT MOBDO DCT MALUG DCT ARALD DCT ABTAN ABTAN2W |
| Aircraft | A320/M-SDE3FGHIRWY/LB1 |
Departure
| Time | 2026-04-26 06:54 |
|---|---|
| Airport | Venice Marco Polo Airport (LIPZ) |
Arrival
| Time | 2026-04-26 07:59 |
|---|---|
| Airport | Vienna International Airport (LOWW) |
| Time | Latitude | Longitude | Altitude | Speed | Heading |
|---|---|---|---|---|---|
| 2026-04-26 06:40 | 45.50616 | 12.34218 | 16 ft | 0 kts | 267° |
| 2026-04-26 06:45 | 45.50616 | 12.34237 | 15 ft | 4 kts | 267° |
| 2026-04-26 06:45 | 45.50617 | 12.34268 | 15 ft | 4 kts | 275° |
| 2026-04-26 06:46 | 45.50611 | 12.34305 | 15 ft | 4 kts | 300° |
| 2026-04-26 06:46 | 45.50594 | 12.34331 | 20 ft | 4 kts | 338° |
| 2026-04-26 06:46 | 45.50570 | 12.34337 | 18 ft | 4 kts | 357° |
| 2026-04-26 06:46 | 45.50563 | 12.34338 | 18 ft | 0 kts | 357° |
| 2026-04-26 06:48 | 45.50574 | 12.34337 | 18 ft | 5 kts | 357° |
| 2026-04-26 06:49 | 45.50606 | 12.34373 | 17 ft | 7 kts | 97° |
| 2026-04-26 06:49 | 45.50577 | 12.34437 | 16 ft | 12 kts | 130° |
| 2026-04-26 06:49 | 45.50501 | 12.34554 | 16 ft | 16 kts | 145° |
| 2026-04-26 06:49 | 45.50409 | 12.34501 | 16 ft | 14 kts | 221° |
| 2026-04-26 06:50 | 45.50334 | 12.34405 | 16 ft | 19 kts | 222° |
| 2026-04-26 06:50 | 45.50223 | 12.34261 | 16 ft | 22 kts | 222° |
| 2026-04-26 06:50 | 45.50109 | 12.34113 | 16 ft | 23 kts | 222° |
| 2026-04-26 06:50 | 45.49988 | 12.33959 | 15 ft | 24 kts | 222° |
| 2026-04-26 06:51 | 45.49861 | 12.33799 | 15 ft | 25 kts | 221° |
| 2026-04-26 06:51 | 45.49647 | 12.33575 | 16 ft | 16 kts | 222° |
| 2026-04-26 06:51 | 45.49591 | 12.33478 | 16 ft | 7 kts | 287° |
| 2026-04-26 06:52 | 45.49596 | 12.33491 | 16 ft | 5 kts | 141° |
| 2026-04-26 06:52 | 45.49539 | 12.33557 | 17 ft | 13 kts | 130° |
| 2026-04-26 06:52 | 45.49478 | 12.33651 | 16 ft | 12 kts | 134° |
| 2026-04-26 06:52 | 45.49423 | 12.33743 | 15 ft | 13 kts | 116° |
| 2026-04-26 06:53 | 45.49470 | 12.33848 | 14 ft | 15 kts | 42° |
| 2026-04-26 06:53 | 45.49652 | 12.34082 | 13 ft | 69 kts | 42° |
| 2026-04-26 06:53 | 45.50162 | 12.34736 | 15 ft | 125 kts | 42° |
| 2026-04-26 06:53 | 45.50929 | 12.35723 | 113 ft | 162 kts | 42° |
| 2026-04-26 06:54 | 45.51746 | 12.36808 | 746 ft | 160 kts | 43° |
| 2026-04-26 06:54 | 45.52555 | 12.37913 | 1384 ft | 166 kts | 45° |
| 2026-04-26 06:54 | 45.53355 | 12.39229 | 1718 ft | 187 kts | 63° |
| 2026-04-26 06:54 | 45.53639 | 12.41100 | 2160 ft | 202 kts | 94° |
| 2026-04-26 06:55 | 45.53425 | 12.43094 | 2853 ft | 205 kts | 98° |
| 2026-04-26 06:55 | 45.53206 | 12.45122 | 3587 ft | 209 kts | 97° |
| 2026-04-26 06:55 | 45.52993 | 12.47184 | 4294 ft | 211 kts | 97° |
| 2026-04-26 06:55 | 45.52780 | 12.49273 | 5007 ft | 214 kts | 97° |
| 2026-04-26 06:56 | 45.52341 | 12.51298 | 5686 ft | 218 kts | 122° |
| 2026-04-26 06:56 | 45.51208 | 12.52727 | 6373 ft | 223 kts | 155° |
| 2026-04-26 06:56 | 45.49675 | 12.53046 | 7016 ft | 228 kts | 189° |
| 2026-04-26 06:56 | 45.48167 | 12.52325 | 7671 ft | 231 kts | 205° |
| 2026-04-26 06:57 | 45.46913 | 12.50905 | 8299 ft | 233 kts | 238° |
| 2026-04-26 06:57 | 45.46340 | 12.48754 | 8806 ft | 242 kts | 269° |
| 2026-04-26 06:57 | 45.46611 | 12.46354 | 9109 ft | 261 kts | 289° |
| 2026-04-26 06:57 | 45.47186 | 12.43789 | 9506 ft | 280 kts | 289° |
| 2026-04-26 06:58 | 45.47789 | 12.41120 | 10197 ft | 286 kts | 289° |
| 2026-04-26 06:58 | 45.48415 | 12.38332 | 10535 ft | 307 kts | 289° |
| 2026-04-26 06:58 | 45.49080 | 12.35327 | 10852 ft | 325 kts | 288° |
| 2026-04-26 06:58 | 45.49761 | 12.32215 | 11476 ft | 332 kts | 288° |
| 2026-04-26 06:59 | 45.50447 | 12.29045 | 12192 ft | 337 kts | 288° |
| 2026-04-26 06:59 | 45.51139 | 12.25837 | 12922 ft | 340 kts | 288° |
| 2026-04-26 06:59 | 45.51841 | 12.22594 | 13632 ft | 344 kts | 288° |
| 2026-04-26 06:59 | 45.52552 | 12.19311 | 14280 ft | 348 kts | 288° |
| 2026-04-26 07:00 | 45.53273 | 12.15990 | 14904 ft | 352 kts | 289° |
| 2026-04-26 07:00 | 45.54002 | 12.12647 | 15523 ft | 355 kts | 289° |
| 2026-04-26 07:00 | 45.54743 | 12.09265 | 16137 ft | 359 kts | 289° |
| 2026-04-26 07:00 | 45.55489 | 12.05850 | 16747 ft | 362 kts | 289° |
| 2026-04-26 07:01 | 45.56244 | 12.02403 | 17355 ft | 366 kts | 289° |
| 2026-04-26 07:01 | 45.57074 | 11.98954 | 17948 ft | 368 kts | 296° |
| 2026-04-26 07:01 | 45.58340 | 11.95783 | 18513 ft | 369 kts | 308° |
| 2026-04-26 07:01 | 45.60054 | 11.93069 | 19023 ft | 368 kts | 321° |
| 2026-04-26 07:02 | 45.62131 | 11.90940 | 19582 ft | 368 kts | 332° |
| 2026-04-26 07:02 | 45.64401 | 11.89345 | 20141 ft | 369 kts | 336° |
| 2026-04-26 07:02 | 45.66733 | 11.87756 | 20707 ft | 371 kts | 335° |
| 2026-04-26 07:02 | 45.69067 | 11.86159 | 21277 ft | 373 kts | 335° |
| 2026-04-26 07:03 | 45.71413 | 11.84550 | 21843 ft | 375 kts | 335° |
| 2026-04-26 07:03 | 45.73774 | 11.82931 | 22393 ft | 377 kts | 335° |
| 2026-04-26 07:03 | 45.76149 | 11.81291 | 22887 ft | 381 kts | 335° |
| 2026-04-26 07:03 | 45.78546 | 11.79625 | 23430 ft | 383 kts | 334° |
| 2026-04-26 07:04 | 45.80952 | 11.77949 | 23915 ft | 385 kts | 334° |
| 2026-04-26 07:04 | 45.83368 | 11.76270 | 24360 ft | 387 kts | 334° |
| 2026-04-26 07:04 | 45.85772 | 11.74605 | 24763 ft | 389 kts | 334° |
| 2026-04-26 07:04 | 45.88222 | 11.72912 | 25151 ft | 391 kts | 334° |
| 2026-04-26 07:05 | 45.90713 | 11.71310 | 25541 ft | 394 kts | 340° |
| 2026-04-26 07:05 | 45.93369 | 11.70313 | 25910 ft | 397 kts | 350° |
| 2026-04-26 07:05 | 45.96135 | 11.70043 | 26285 ft | 400 kts | 1° |
| 2026-04-26 07:05 | 45.98916 | 11.70511 | 26673 ft | 404 kts | 8° |
| 2026-04-26 07:06 | 46.01694 | 11.71195 | 27055 ft | 406 kts | 8° |
| 2026-04-26 07:06 | 46.04492 | 11.71876 | 27408 ft | 408 kts | 7° |
| 2026-04-26 07:06 | 46.07306 | 11.72555 | 27751 ft | 411 kts | 7° |
| 2026-04-26 07:06 | 46.10139 | 11.73238 | 28069 ft | 413 kts | 7° |
| 2026-04-26 07:07 | 46.12945 | 11.73920 | 28406 ft | 416 kts | 7° |
| 2026-04-26 07:07 | 46.15809 | 11.74620 | 28740 ft | 418 kts | 7° |
| 2026-04-26 07:07 | 46.18685 | 11.75323 | 29036 ft | 420 kts | 7° |
| 2026-04-26 07:07 | 46.21558 | 11.76025 | 29119 ft | 413 kts | 7° |
| 2026-04-26 07:08 | 46.24343 | 11.76713 | 29125 ft | 400 kts | 7° |
| 2026-04-26 07:08 | 46.27070 | 11.77389 | 29127 ft | 396 kts | 7° |
| 2026-04-26 07:08 | 46.32487 | 11.78717 | 29128 ft | 394 kts | 7° |
| 2026-04-26 07:09 | 46.37875 | 11.80230 | 29144 ft | 396 kts | 16° |
| 2026-04-26 07:09 | 46.40399 | 11.81837 | 29137 ft | 399 kts | 28° |
| 2026-04-26 07:09 | 46.42653 | 11.84203 | 29140 ft | 403 kts | 40° |
| 2026-04-26 07:10 | 46.47286 | 11.94477 | 29143 ft | 410 kts | 59° |
| 2026-04-26 07:11 | 46.49934 | 12.01815 | 29140 ft | 410 kts | 59° |
| 2026-04-26 07:11 | 46.52566 | 12.09112 | 29146 ft | 410 kts | 59° |
| 2026-04-26 07:12 | 46.55211 | 12.16460 | 29159 ft | 410 kts | 59° |
| 2026-04-26 07:12 | 46.57840 | 12.23817 | 29240 ft | 410 kts | 60° |
| 2026-04-26 07:13 | 46.60466 | 12.31171 | 29243 ft | 409 kts | 59° |
| 2026-04-26 07:13 | 46.63090 | 12.38512 | 29236 ft | 409 kts | 60° |
| 2026-04-26 07:14 | 46.65695 | 12.45863 | 29220 ft | 408 kts | 60° |
| 2026-04-26 07:14 | 46.68286 | 12.53170 | 29204 ft | 408 kts | 60° |
| 2026-04-26 07:15 | 46.70202 | 12.60980 | 29187 ft | 414 kts | 78° |
| 2026-04-26 07:15 | 46.70436 | 12.65176 | 29175 ft | 417 kts | 89° |
| 2026-04-26 07:15 | 46.70311 | 12.69400 | 29172 ft | 418 kts | 90° |
| 2026-04-26 07:16 | 46.70037 | 12.77863 | 29144 ft | 418 kts | 90° |
| 2026-04-26 07:16 | 46.69763 | 12.86317 | 29138 ft | 417 kts | 90° |
| 2026-04-26 07:17 | 46.69486 | 12.94712 | 29128 ft | 417 kts | 90° |
| 2026-04-26 07:17 | 46.69196 | 13.03166 | 29139 ft | 417 kts | 90° |
| 2026-04-26 07:18 | 46.68894 | 13.11537 | 29141 ft | 417 kts | 91° |
| 2026-04-26 07:18 | 46.68595 | 13.19977 | 29131 ft | 416 kts | 89° |
| 2026-04-26 07:19 | 46.69335 | 13.28221 | 29125 ft | 409 kts | 70° |
| 2026-04-26 07:19 | 46.71686 | 13.35653 | 29129 ft | 406 kts | 60° |
| 2026-04-26 07:20 | 46.74291 | 13.42961 | 29129 ft | 406 kts | 60° |
| 2026-04-26 07:20 | 46.76882 | 13.50276 | 29137 ft | 406 kts | 60° |
| 2026-04-26 07:21 | 46.79470 | 13.57594 | 29157 ft | 406 kts | 60° |
| 2026-04-26 07:21 | 46.82049 | 13.64913 | 29145 ft | 405 kts | 60° |
| 2026-04-26 07:22 | 46.84615 | 13.72231 | 29141 ft | 405 kts | 60° |
| 2026-04-26 07:22 | 46.87180 | 13.79557 | 29137 ft | 404 kts | 60° |
| 2026-04-26 07:23 | 46.89741 | 13.86883 | 29139 ft | 404 kts | 60° |
| 2026-04-26 07:23 | 46.92294 | 13.94212 | 29140 ft | 404 kts | 60° |
| 2026-04-26 07:24 | 46.94848 | 14.01539 | 29156 ft | 404 kts | 60° |
| 2026-04-26 07:24 | 46.97391 | 14.08873 | 29153 ft | 403 kts | 60° |
| 2026-04-26 07:25 | 46.99925 | 14.16195 | 29151 ft | 403 kts | 60° |
| 2026-04-26 07:25 | 47.02460 | 14.23532 | 29144 ft | 403 kts | 60° |
| 2026-04-26 07:26 | 47.04976 | 14.30862 | 29136 ft | 403 kts | 60° |
| 2026-04-26 07:26 | 47.07481 | 14.38162 | 29136 ft | 403 kts | 60° |
| 2026-04-26 07:27 | 47.09988 | 14.45515 | 29144 ft | 403 kts | 60° |
| 2026-04-26 07:27 | 47.12006 | 14.53202 | 29135 ft | 407 kts | 72° |
| 2026-04-26 07:28 | 47.13390 | 14.61265 | 29134 ft | 407 kts | 72° |
| 2026-04-26 07:28 | 47.14779 | 14.69333 | 29127 ft | 407 kts | 72° |
| 2026-04-26 07:29 | 47.16163 | 14.77419 | 29128 ft | 408 kts | 72° |
| 2026-04-26 07:29 | 47.17540 | 14.85501 | 29126 ft | 408 kts | 72° |
| 2026-04-26 07:30 | 47.18905 | 14.93537 | 29122 ft | 408 kts | 72° |
| 2026-04-26 07:30 | 47.20270 | 15.01632 | 29114 ft | 408 kts | 72° |
| 2026-04-26 07:31 | 47.21628 | 15.09738 | 29120 ft | 408 kts | 72° |
| 2026-04-26 07:31 | 47.22301 | 15.13784 | 28931 ft | 403 kts | 72° |
| 2026-04-26 07:31 | 47.22960 | 15.17757 | 28557 ft | 397 kts | 72° |
| 2026-04-26 07:31 | 47.23612 | 15.21683 | 28105 ft | 392 kts | 72° |
| 2026-04-26 07:32 | 47.24257 | 15.25565 | 27670 ft | 388 kts | 72° |
| 2026-04-26 07:32 | 47.24897 | 15.29409 | 27236 ft | 385 kts | 72° |
| 2026-04-26 07:32 | 47.25528 | 15.33223 | 26800 ft | 382 kts | 72° |
| 2026-04-26 07:32 | 47.26154 | 15.37016 | 26365 ft | 380 kts | 72° |
| 2026-04-26 07:33 | 47.26765 | 15.40737 | 25940 ft | 378 kts | 72° |
| 2026-04-26 07:33 | 47.27379 | 15.44488 | 25484 ft | 376 kts | 72° |
| 2026-04-26 07:33 | 47.27992 | 15.48221 | 25037 ft | 374 kts | 72° |
| 2026-04-26 07:33 | 47.28603 | 15.51946 | 24575 ft | 373 kts | 71° |
| 2026-04-26 07:34 | 47.29212 | 15.55655 | 24097 ft | 372 kts | 71° |
| 2026-04-26 07:34 | 47.29819 | 15.59359 | 23614 ft | 371 kts | 71° |
| 2026-04-26 07:34 | 47.30422 | 15.63051 | 23099 ft | 370 kts | 71° |
| 2026-04-26 07:34 | 47.31019 | 15.66729 | 22634 ft | 368 kts | 72° |
| 2026-04-26 07:35 | 47.31608 | 15.70380 | 22179 ft | 365 kts | 72° |
| 2026-04-26 07:35 | 47.31995 | 15.72793 | 21871 ft | 364 kts | 72° |
| 2026-04-26 07:35 | 47.32577 | 15.76421 | 21424 ft | 363 kts | 72° |
| 2026-04-26 07:35 | 47.33155 | 15.80027 | 20967 ft | 361 kts | 72° |
| 2026-04-26 07:36 | 47.33734 | 15.83624 | 20526 ft | 360 kts | 72° |
| 2026-04-26 07:36 | 47.34313 | 15.87208 | 20076 ft | 359 kts | 72° |
| 2026-04-26 07:36 | 47.35075 | 15.91950 | 19489 ft | 358 kts | 72° |
| 2026-04-26 07:36 | 47.35459 | 15.94364 | 19191 ft | 358 kts | 73° |
| 2026-04-26 07:37 | 47.36068 | 15.97914 | 18770 ft | 355 kts | 66° |
| 2026-04-26 07:37 | 47.37160 | 16.01115 | 18326 ft | 346 kts | 49° |
| 2026-04-26 07:37 | 47.38772 | 16.03666 | 17923 ft | 334 kts | 33° |
| 2026-04-26 07:37 | 47.40703 | 16.05422 | 17679 ft | 320 kts | 19° |
| 2026-04-26 07:38 | 47.42772 | 16.06516 | 17420 ft | 314 kts | 14° |
| 2026-04-26 07:38 | 47.44836 | 16.07538 | 17163 ft | 312 kts | 14° |
| 2026-04-26 07:38 | 47.46888 | 16.08552 | 16905 ft | 310 kts | 14° |
| 2026-04-26 07:38 | 47.48934 | 16.09563 | 16646 ft | 309 kts | 14° |
| 2026-04-26 07:39 | 47.50948 | 16.10563 | 16397 ft | 308 kts | 14° |
| 2026-04-26 07:39 | 47.52977 | 16.11572 | 16147 ft | 306 kts | 13° |
| 2026-04-26 07:39 | 47.54990 | 16.12573 | 15893 ft | 303 kts | 13° |
| 2026-04-26 07:39 | 47.56987 | 16.13565 | 15637 ft | 302 kts | 13° |
| 2026-04-26 07:40 | 47.58971 | 16.14552 | 15389 ft | 300 kts | 13° |
| 2026-04-26 07:40 | 47.60945 | 16.15538 | 15146 ft | 299 kts | 13° |
| 2026-04-26 07:40 | 47.62917 | 16.16520 | 14896 ft | 298 kts | 13° |
| 2026-04-26 07:40 | 47.64884 | 16.17501 | 14648 ft | 297 kts | 13° |
| 2026-04-26 07:41 | 47.66840 | 16.18477 | 14403 ft | 296 kts | 13° |
| 2026-04-26 07:41 | 47.68791 | 16.19452 | 14165 ft | 295 kts | 13° |
| 2026-04-26 07:41 | 47.70731 | 16.20421 | 13914 ft | 294 kts | 13° |
| 2026-04-26 07:41 | 47.72669 | 16.21390 | 13653 ft | 293 kts | 13° |
| 2026-04-26 07:42 | 47.74594 | 16.22355 | 13408 ft | 292 kts | 13° |
| 2026-04-26 07:42 | 47.76427 | 16.23600 | 13168 ft | 297 kts | 26° |
| 2026-04-26 07:42 | 47.78045 | 16.25548 | 12919 ft | 304 kts | 40° |
| 2026-04-26 07:42 | 47.79483 | 16.27849 | 12673 ft | 303 kts | 40° |
| 2026-04-26 07:43 | 47.80888 | 16.30100 | 12425 ft | 302 kts | 40° |
| 2026-04-26 07:43 | 47.82313 | 16.32378 | 12174 ft | 300 kts | 40° |
| 2026-04-26 07:43 | 47.83735 | 16.34650 | 11926 ft | 299 kts | 39° |
| 2026-04-26 07:43 | 47.85151 | 16.36914 | 11681 ft | 298 kts | 39° |
| 2026-04-26 07:44 | 47.86560 | 16.39165 | 11434 ft | 296 kts | 39° |
| 2026-04-26 07:44 | 47.87875 | 16.41557 | 11186 ft | 302 kts | 50° |
| 2026-04-26 07:44 | 47.88787 | 16.44424 | 10907 ft | 312 kts | 65° |
| 2026-04-26 07:44 | 47.89344 | 16.47574 | 10615 ft | 317 kts | 74° |
| 2026-04-26 07:45 | 47.89221 | 16.50865 | 10160 ft | 334 kts | 103° |
| 2026-04-26 07:45 | 47.88037 | 16.53860 | 9767 ft | 339 kts | 135° |
| 2026-04-26 07:45 | 47.86093 | 16.55723 | 9450 ft | 329 kts | 163° |
| 2026-04-26 07:45 | 47.83918 | 16.56705 | 9146 ft | 325 kts | 168° |
| 2026-04-26 07:46 | 47.81747 | 16.57614 | 8850 ft | 323 kts | 168° |
| 2026-04-26 07:46 | 47.79589 | 16.58499 | 8592 ft | 321 kts | 169° |
| 2026-04-26 07:46 | 47.77464 | 16.59369 | 8419 ft | 311 kts | 169° |
| 2026-04-26 07:46 | 47.75411 | 16.60212 | 8249 ft | 302 kts | 169° |
| 2026-04-26 07:47 | 47.73408 | 16.61037 | 8026 ft | 295 kts | 169° |
| 2026-04-26 07:47 | 47.71428 | 16.61854 | 7803 ft | 295 kts | 169° |
| 2026-04-26 07:47 | 47.69521 | 16.62966 | 7512 ft | 297 kts | 148° |
| 2026-04-26 07:47 | 47.68101 | 16.65159 | 7215 ft | 295 kts | 116° |
| 2026-04-26 07:48 | 47.67520 | 16.68000 | 6892 ft | 284 kts | 85° |
| 2026-04-26 07:48 | 47.67821 | 16.70783 | 6579 ft | 267 kts | 58° |
| 2026-04-26 07:48 | 47.68805 | 16.72938 | 6288 ft | 247 kts | 32° |
| 2026-04-26 07:48 | 47.70211 | 16.74190 | 6031 ft | 228 kts | 8° |
| 2026-04-26 07:49 | 47.71732 | 16.74453 | 5819 ft | 216 kts | 347° |
| 2026-04-26 07:49 | 47.73201 | 16.73955 | 5611 ft | 225 kts | 341° |
| 2026-04-26 07:49 | 47.74723 | 16.73413 | 5397 ft | 221 kts | 341° |
| 2026-04-26 07:50 | 47.77677 | 16.72220 | 4976 ft | 226 kts | 340° |
| 2026-04-26 07:50 | 47.79159 | 16.71604 | 4785 ft | 217 kts | 341° |
| 2026-04-26 07:50 | 47.80584 | 16.71010 | 4587 ft | 208 kts | 341° |
| 2026-04-26 07:50 | 47.81951 | 16.70439 | 4398 ft | 200 kts | 341° |
| 2026-04-26 07:51 | 47.83264 | 16.69890 | 4233 ft | 192 kts | 342° |
| 2026-04-26 07:51 | 47.84522 | 16.69364 | 4062 ft | 184 kts | 342° |
| 2026-04-26 07:51 | 47.85725 | 16.68861 | 3964 ft | 173 kts | 342° |
| 2026-04-26 07:51 | 47.86838 | 16.68396 | 3885 ft | 159 kts | 342° |
| 2026-04-26 07:52 | 47.87854 | 16.67970 | 3802 ft | 143 kts | 342° |
| 2026-04-26 07:52 | 47.88764 | 16.67589 | 3742 ft | 131 kts | 342° |
| 2026-04-26 07:52 | 47.89631 | 16.67225 | 3701 ft | 129 kts | 342° |
| 2026-04-26 07:52 | 47.90495 | 16.66863 | 3646 ft | 129 kts | 342° |
| 2026-04-26 07:53 | 47.91345 | 16.66506 | 3596 ft | 128 kts | 342° |
| 2026-04-26 07:53 | 47.92200 | 16.66147 | 3531 ft | 127 kts | 342° |
| 2026-04-26 07:53 | 47.93064 | 16.65785 | 3472 ft | 130 kts | 342° |
| 2026-04-26 07:53 | 47.93923 | 16.65425 | 3379 ft | 127 kts | 342° |
| 2026-04-26 07:54 | 47.94780 | 16.65064 | 3267 ft | 128 kts | 343° |
| 2026-04-26 07:54 | 47.95631 | 16.64707 | 3219 ft | 128 kts | 343° |
| 2026-04-26 07:54 | 47.96484 | 16.64349 | 3116 ft | 127 kts | 343° |
| 2026-04-26 07:54 | 47.97333 | 16.63992 | 2974 ft | 127 kts | 343° |
| 2026-04-26 07:55 | 47.98183 | 16.63635 | 2818 ft | 127 kts | 343° |
| 2026-04-26 07:55 | 47.99028 | 16.63279 | 2647 ft | 125 kts | 343° |
| 2026-04-26 07:55 | 47.99875 | 16.62923 | 2475 ft | 127 kts | 343° |
| 2026-04-26 07:55 | 48.00716 | 16.62569 | 2306 ft | 126 kts | 343° |
| 2026-04-26 07:56 | 48.01559 | 16.62214 | 2140 ft | 126 kts | 343° |
| 2026-04-26 07:56 | 48.02397 | 16.61861 | 1969 ft | 124 kts | 343° |
| 2026-04-26 07:56 | 48.03225 | 16.61513 | 1801 ft | 124 kts | 343° |
| 2026-04-26 07:56 | 48.04059 | 16.61161 | 1625 ft | 125 kts | 343° |
| 2026-04-26 07:57 | 48.04885 | 16.60813 | 1456 ft | 123 kts | 343° |
| 2026-04-26 07:57 | 48.05718 | 16.60462 | 1282 ft | 123 kts | 343° |
| 2026-04-26 07:57 | 48.06539 | 16.60115 | 1106 ft | 126 kts | 343° |
| 2026-04-26 07:57 | 48.07371 | 16.59764 | 941 ft | 125 kts | 343° |
| 2026-04-26 07:58 | 48.08212 | 16.59407 | 769 ft | 124 kts | 344° |
| 2026-04-26 07:58 | 48.09044 | 16.59054 | 647 ft | 123 kts | 344° |
| 2026-04-26 07:58 | 48.09827 | 16.58722 | 618 ft | 109 kts | 344° |
| 2026-04-26 07:58 | 48.10438 | 16.58466 | 614 ft | 64 kts | 344° |
| 2026-04-26 07:59 | 48.10599 | 16.58396 | 619 ft | 2 kts | 339° |
| 2026-04-26 07:59 | 48.10641 | 16.58362 | 620 ft | 11 kts | 329° |
| 2026-04-26 07:59 | 48.10721 | 16.58286 | 616 ft | 14 kts | 322° |
| 2026-04-26 07:59 | 48.10793 | 16.58185 | 621 ft | 15 kts | 315° |
| 2026-04-26 08:00 | 48.10866 | 16.58075 | 619 ft | 15 kts | 314° |
| 2026-04-26 08:00 | 48.10940 | 16.57960 | 614 ft | 15 kts | 313° |
| 2026-04-26 08:00 | 48.11011 | 16.57846 | 620 ft | 14 kts | 313° |
| 2026-04-26 08:00 | 48.11094 | 16.57773 | 616 ft | 14 kts | 343° |
| 2026-04-26 08:01 | 48.11166 | 16.57684 | 612 ft | 14 kts | 298° |
| 2026-04-26 08:01 | 48.11213 | 16.57543 | 610 ft | 16 kts | 296° |
| 2026-04-26 08:01 | 48.11262 | 16.57394 | 612 ft | 16 kts | 296° |
| 2026-04-26 08:01 | 48.11313 | 16.57236 | 612 ft | 17 kts | 296° |
| 2026-04-26 08:02 | 48.11368 | 16.57070 | 612 ft | 18 kts | 296° |
| 2026-04-26 08:02 | 48.11425 | 16.56899 | 613 ft | 19 kts | 295° |
| 2026-04-26 08:02 | 48.11480 | 16.56727 | 620 ft | 19 kts | 296° |
| 2026-04-26 08:02 | 48.11536 | 16.56553 | 623 ft | 19 kts | 295° |
| 2026-04-26 08:03 | 48.11594 | 16.56376 | 615 ft | 19 kts | 296° |
| 2026-04-26 08:03 | 48.11653 | 16.56196 | 622 ft | 19 kts | 296° |
| 2026-04-26 08:03 | 48.11712 | 16.56014 | 612 ft | 20 kts | 296° |
| 2026-04-26 08:03 | 48.11767 | 16.55846 | 619 ft | 17 kts | 296° |
| 2026-04-26 08:04 | 48.11819 | 16.55685 | 611 ft | 16 kts | 295° |
| 2026-04-26 08:04 | 48.11849 | 16.55592 | 616 ft | 9 kts | 296° |
| 2026-04-26 08:04 | 48.11876 | 16.55502 | 618 ft | 10 kts | 288° |
| 2026-04-26 08:04 | 48.11918 | 16.55478 | 609 ft | 6 kts | 22° |
| 2026-04-26 08:05 | 48.11923 | 16.55494 | 609 ft | 3 kts | 65° |
| 2026-04-26 08:05 | 48.11931 | 16.55519 | 609 ft | 2 kts | 65° |
| 2026-04-26 08:05 | 48.11937 | 16.55539 | 618 ft | 5 kts | 64° |
| 2026-04-26 08:05 | 48.11946 | 16.55567 | 616 ft | 0 kts | 64° |
| 2026-04-26 08:06 | 48.11948 | 16.55571 | 613 ft | 2 kts | 61° |
| 2026-04-26 08:06 | 48.11950 | 16.55578 | 615 ft | 1 kts | 64° |
| 2026-04-26 08:06 | 48.11952 | 16.55583 | 615 ft | 0 kts | 63° |
| 2026-04-26 08:06 | 48.11954 | 16.55590 | 615 ft | 0 kts | 63° |
| 2026-04-26 08:07 | 48.11954 | 16.55591 | 621 ft | 0 kts | 63° |